sensor_id;sensor_type;location;lat;lon;timestamp;P1;durP1;ratioP1;P2;durP2;ratioP2
30233;SDS011;17046;52.074;4.748;2022-12-07T00:00:38;7.57;;;3.70;;
30233;SDS011;17046;52.074;4.748;2022-12-07T00:03:03;9.80;;;3.60;;
30233;SDS011;17046;52.074;4.748;2022-12-07T00:05:29;12.50;;;3.97;;
30233;SDS011;17046;52.074;4.748;2022-12-07T00:07:55;6.70;;;3.20;;
30233;SDS011;17046;52.074;4.748;2022-12-07T00:10:20;13.07;;;3.67;;
30233;SDS011;17046;52.074;4.748;2022-12-07T00:12:46;12.07;;;4.27;;
30233;SDS011;17046;52.074;4.748;2022-12-07T00:15:11;12.10;;;4.60;;
30233;SDS011;17046;52.074;4.748;2022-12-07T00:17:37;11.03;;;3.93;;
30233;SDS011;17046;52.074;4.748;2022-12-07T00:20:03;9.87;;;4.20;;
30233;SDS011;17046;52.074;4.748;2022-12-07T00:22:29;11.27;;;4.70;;
30233;SDS011;17046;52.074;4.748;2022-12-07T00:24:54;8.73;;;3.27;;
30233;SDS011;17046;52.074;4.748;2022-12-07T00:27:20;10.80;;;3.70;;
30233;SDS011;17046;52.074;4.748;2022-12-07T00:29:45;7.10;;;2.63;;
30233;SDS011;17046;52.074;4.748;2022-12-07T00:32:11;8.33;;;2.70;;
30233;SDS011;17046;52.074;4.748;2022-12-07T00:34:36;11.13;;;3.53;;
30233;SDS011;17046;52.074;4.748;2022-12-07T00:37:02;9.67;;;2.80;;
30233;SDS011;17046;52.074;4.748;2022-12-07T00:39:27;6.37;;;2.83;;
30233;SDS011;17046;52.074;4.748;2022-12-07T00:41:53;9.67;;;2.77;;
30233;SDS011;17046;52.074;4.748;2022-12-07T00:44:18;9.83;;;2.80;;
30233;SDS011;17046;52.074;4.748;2022-12-07T00:46:44;12.10;;;3.20;;
30233;SDS011;17046;52.074;4.748;2022-12-07T00:49:10;10.90;;;3.03;;
30233;SDS011;17046;52.074;4.748;2022-12-07T00:51:36;6.90;;;2.43;;
30233;SDS011;17046;52.074;4.748;2022-12-07T00:54:01;6.83;;;2.43;;
30233;SDS011;17046;52.074;4.748;2022-12-07T00:56:27;8.90;;;3.30;;
30233;SDS011;17046;52.074;4.748;2022-12-07T00:58:54;10.60;;;3.37;;
30233;SDS011;17046;52.074;4.748;2022-12-07T01:01:22;9.80;;;2.60;;
30233;SDS011;17046;52.074;4.748;2022-12-07T01:03:48;5.70;;;2.10;;
30233;SDS011;17046;52.074;4.748;2022-12-07T01:06:15;9.40;;;2.13;;
30233;SDS011;17046;52.074;4.748;2022-12-07T01:08:44;8.27;;;2.30;;
30233;SDS011;17046;52.074;4.748;2022-12-07T01:11:11;5.93;;;1.90;;
30233;SDS011;17046;52.074;4.748;2022-12-07T01:13:38;7.77;;;1.97;;
30233;SDS011;17046;52.074;4.748;2022-12-07T01:16:05;7.60;;;1.97;;
30233;SDS011;17046;52.074;4.748;2022-12-07T01:18:33;7.67;;;2.33;;
30233;SDS011;17046;52.074;4.748;2022-12-07T01:21:00;6.90;;;1.63;;
30233;SDS011;17046;52.074;4.748;2022-12-07T01:23:27;6.80;;;2.00;;
30233;SDS011;17046;52.074;4.748;2022-12-07T01:25:59;5.73;;;1.87;;
30233;SDS011;17046;52.074;4.748;2022-12-07T01:28:26;11.53;;;2.30;;
30233;SDS011;17046;52.074;4.748;2022-12-07T01:31:02;6.20;;;1.70;;
30233;SDS011;17046;52.074;4.748;2022-12-07T01:33:34;5.20;;;1.40;;
30233;SDS011;17046;52.074;4.748;2022-12-07T01:36:04;7.20;;;1.50;;
30233;SDS011;17046;52.074;4.748;2022-12-07T01:38:32;13.10;;;1.90;;
30233;SDS011;17046;52.074;4.748;2022-12-07T01:40:59;9.27;;;1.40;;
30233;SDS011;17046;52.074;4.748;2022-12-07T01:43:27;7.37;;;1.30;;
30233;SDS011;17046;52.074;4.748;2022-12-07T01:45:54;7.77;;;1.20;;
30233;SDS011;17046;52.074;4.748;2022-12-07T01:48:40;11.40;;;1.83;;
30233;SDS011;17046;52.074;4.748;2022-12-07T01:51:09;7.00;;;1.40;;
30233;SDS011;17046;52.074;4.748;2022-12-07T01:53:38;9.63;;;2.40;;
30233;SDS011;17046;52.074;4.748;2022-12-07T01:56:08;6.53;;;1.30;;
30233;SDS011;17046;52.074;4.748;2022-12-07T01:58:37;9.40;;;1.47;;
30233;SDS011;17046;52.074;4.748;2022-12-07T02:01:03;8.37;;;0.97;;
30233;SDS011;17046;52.074;4.748;2022-12-07T02:03:33;6.97;;;1.20;;
30233;SDS011;17046;52.074;4.748;2022-12-07T02:06:04;10.13;;;1.50;;
30233;SDS011;17046;52.074;4.748;2022-12-07T02:08:31;8.27;;;1.50;;
30233;SDS011;17046;52.074;4.748;2022-12-07T02:10:57;10.20;;;1.73;;
30233;SDS011;17046;52.074;4.748;2022-12-07T02:13:31;10.13;;;1.33;;
30233;SDS011;17046;52.074;4.748;2022-12-07T02:18:44;6.07;;;1.00;;
30233;SDS011;17046;52.074;4.748;2022-12-07T02:27:07;7.60;;;1.10;;
30233;SDS011;17046;52.074;4.748;2022-12-07T02:32:44;7.37;;;1.30;;
30233;SDS011;17046;52.074;4.748;2022-12-07T02:35:32;5.47;;;1.20;;
30233;SDS011;17046;52.074;4.748;2022-12-07T02:38:18;6.53;;;0.90;;
30233;SDS011;17046;52.074;4.748;2022-12-07T02:41:07;5.17;;;0.80;;
30233;SDS011;17046;52.074;4.748;2022-12-07T02:43:47;8.57;;;1.10;;
30233;SDS011;17046;52.074;4.748;2022-12-07T02:46:21;7.70;;;0.87;;
30233;SDS011;17046;52.074;4.748;2022-12-07T02:48:50;4.60;;;1.00;;
30233;SDS011;17046;52.074;4.748;2022-12-07T02:51:18;10.43;;;1.37;;
30233;SDS011;17046;52.074;4.748;2022-12-07T02:53:44;4.77;;;1.00;;
30233;SDS011;17046;52.074;4.748;2022-12-07T02:56:16;4.00;;;1.20;;
30233;SDS011;17046;52.074;4.748;2022-12-07T03:04:07;7.33;;;0.90;;
30233;SDS011;17046;52.074;4.748;2022-12-07T03:06:56;7.57;;;1.20;;
30233;SDS011;17046;52.074;4.748;2022-12-07T03:09:33;7.17;;;1.30;;
30233;SDS011;17046;52.074;4.748;2022-12-07T03:12:17;12.37;;;2.87;;
30233;SDS011;17046;52.074;4.748;2022-12-07T03:14:49;9.53;;;1.50;;
30233;SDS011;17046;52.074;4.748;2022-12-07T03:17:31;5.83;;;1.00;;
30233;SDS011;17046;52.074;4.748;2022-12-07T03:20:00;13.13;;;1.23;;
30233;SDS011;17046;52.074;4.748;2022-12-07T03:22:29;7.33;;;1.10;;
30233;SDS011;17046;52.074;4.748;2022-12-07T03:24:58;8.70;;;1.33;;
30233;SDS011;17046;52.074;4.748;2022-12-07T03:27:43;5.30;;;1.00;;
30233;SDS011;17046;52.074;4.748;2022-12-07T03:30:22;6.77;;;0.97;;
30233;SDS011;17046;52.074;4.748;2022-12-07T03:33:06;9.20;;;1.10;;
30233;SDS011;17046;52.074;4.748;2022-12-07T03:35:39;8.80;;;1.50;;
30233;SDS011;17046;52.074;4.748;2022-12-07T03:38:18;8.90;;;1.33;;
30233;SDS011;17046;52.074;4.748;2022-12-07T03:40:55;11.53;;;1.50;;
30233;SDS011;17046;52.074;4.748;2022-12-07T03:43:33;11.20;;;1.33;;
30233;SDS011;17046;52.074;4.748;2022-12-07T03:51:55;11.07;;;2.20;;
30233;SDS011;17046;52.074;4.748;2022-12-07T03:55:32;7.40;;;3.53;;
30233;SDS011;17046;52.074;4.748;2022-12-07T03:57:31;10.17;;;3.17;;
30233;SDS011;17046;52.074;4.748;2022-12-07T03:59:59;12.17;;;2.23;;
30233;SDS011;17046;52.074;4.748;2022-12-07T04:02:26;7.17;;;2.30;;
30233;SDS011;17046;52.074;4.748;2022-12-07T04:04:53;8.23;;;2.50;;
30233;SDS011;17046;52.074;4.748;2022-12-07T04:07:19;7.10;;;1.60;;
30233;SDS011;17046;52.074;4.748;2022-12-07T04:09:45;5.50;;;1.30;;
30233;SDS011;17046;52.074;4.748;2022-12-07T04:12:10;5.10;;;0.80;;
30233;SDS011;17046;52.074;4.748;2022-12-07T04:14:36;6.00;;;0.80;;
30233;SDS011;17046;52.074;4.748;2022-12-07T04:17:01;10.00;;;1.47;;
30233;SDS011;17046;52.074;4.748;2022-12-07T04:19:28;7.13;;;1.17;;
30233;SDS011;17046;52.074;4.748;2022-12-07T04:21:56;7.13;;;0.80;;
30233;SDS011;17046;52.074;4.748;2022-12-07T04:24:23;11.37;;;1.10;;
30233;SDS011;17046;52.074;4.748;2022-12-07T04:26:49;6.83;;;0.77;;
30233;SDS011;17046;52.074;4.748;2022-12-07T04:29:15;7.93;;;0.80;;
30233;SDS011;17046;52.074;4.748;2022-12-07T04:31:41;8.67;;;0.80;;
30233;SDS011;17046;52.074;4.748;2022-12-07T04:34:07;6.90;;;0.80;;
30233;SDS011;17046;52.074;4.748;2022-12-07T04:36:33;7.00;;;1.00;;
30233;SDS011;17046;52.074;4.748;2022-12-07T04:38:59;9.77;;;1.53;;
30233;SDS011;17046;52.074;4.748;2022-12-07T04:41:26;7.33;;;1.07;;
30233;SDS011;17046;52.074;4.748;2022-12-07T04:43:53;12.67;;;1.00;;
30233;SDS011;17046;52.074;4.748;2022-12-07T04:46:29;8.37;;;1.13;;
30233;SDS011;17046;52.074;4.748;2022-12-07T04:48:56;12.83;;;1.13;;
30233;SDS011;17046;52.074;4.748;2022-12-07T04:51:24;7.67;;;1.00;;
30233;SDS011;17046;52.074;4.748;2022-12-07T04:53:51;7.83;;;1.50;;
30233;SDS011;17046;52.074;4.748;2022-12-07T04:56:17;6.77;;;1.17;;
30233;SDS011;17046;52.074;4.748;2022-12-07T04:58:44;7.03;;;1.43;;
30233;SDS011;17046;52.074;4.748;2022-12-07T05:01:11;5.93;;;0.67;;
30233;SDS011;17046;52.074;4.748;2022-12-07T05:03:37;6.40;;;1.00;;
30233;SDS011;17046;52.074;4.748;2022-12-07T05:06:03;4.93;;;1.00;;
30233;SDS011;17046;52.074;4.748;2022-12-07T05:08:29;6.87;;;1.73;;
30233;SDS011;17046;52.074;4.748;2022-12-07T05:10:55;4.37;;;1.03;;
30233;SDS011;17046;52.074;4.748;2022-12-07T05:13:20;8.50;;;1.37;;
30233;SDS011;17046;52.074;4.748;2022-12-07T05:15:46;8.80;;;1.60;;
30233;SDS011;17046;52.074;4.748;2022-12-07T05:18:13;6.17;;;1.10;;
30233;SDS011;17046;52.074;4.748;2022-12-07T05:20:39;5.23;;;0.83;;
30233;SDS011;17046;52.074;4.748;2022-12-07T05:23:05;3.97;;;1.00;;
30233;SDS011;17046;52.074;4.748;2022-12-07T05:25:31;6.67;;;1.13;;
30233;SDS011;17046;52.074;4.748;2022-12-07T05:27:57;5.17;;;1.13;;
30233;SDS011;17046;52.074;4.748;2022-12-07T05:30:23;11.23;;;1.80;;
30233;SDS011;17046;52.074;4.748;2022-12-07T05:32:49;7.27;;;1.37;;
30233;SDS011;17046;52.074;4.748;2022-12-07T05:35:15;6.67;;;1.23;;
30233;SDS011;17046;52.074;4.748;2022-12-07T05:37:41;6.47;;;1.20;;
30233;SDS011;17046;52.074;4.748;2022-12-07T05:40:07;12.60;;;1.60;;
30233;SDS011;17046;52.074;4.748;2022-12-07T05:42:33;10.13;;;1.60;;
30233;SDS011;17046;52.074;4.748;2022-12-07T05:44:59;10.50;;;1.23;;
30233;SDS011;17046;52.074;4.748;2022-12-07T05:47:24;5.73;;;1.10;;
30233;SDS011;17046;52.074;4.748;2022-12-07T05:49:51;6.37;;;1.23;;
30233;SDS011;17046;52.074;4.748;2022-12-07T05:52:16;8.17;;;1.20;;
30233;SDS011;17046;52.074;4.748;2022-12-07T05:54:42;6.70;;;1.20;;
30233;SDS011;17046;52.074;4.748;2022-12-07T05:57:07;7.63;;;1.10;;
30233;SDS011;17046;52.074;4.748;2022-12-07T05:59:33;9.33;;;0.93;;
30233;SDS011;17046;52.074;4.748;2022-12-07T06:02:00;5.33;;;1.00;;
30233;SDS011;17046;52.074;4.748;2022-12-07T06:04:32;7.50;;;1.33;;
30233;SDS011;17046;52.074;4.748;2022-12-07T06:07:02;5.83;;;1.67;;
30233;SDS011;17046;52.074;4.748;2022-12-07T06:09:29;6.77;;;1.13;;
30233;SDS011;17046;52.074;4.748;2022-12-07T06:11:55;5.73;;;1.13;;
30233;SDS011;17046;52.074;4.748;2022-12-07T06:14:40;8.23;;;1.00;;
30233;SDS011;17046;52.074;4.748;2022-12-07T06:17:06;4.07;;;1.10;;
30233;SDS011;17046;52.074;4.748;2022-12-07T06:19:32;6.70;;;1.10;;
30233;SDS011;17046;52.074;4.748;2022-12-07T06:21:57;5.13;;;1.37;;
30233;SDS011;17046;52.074;4.748;2022-12-07T06:24:23;5.07;;;1.33;;
30233;SDS011;17046;52.074;4.748;2022-12-07T06:26:49;8.13;;;1.30;;
30233;SDS011;17046;52.074;4.748;2022-12-07T06:29:17;4.87;;;1.40;;
30233;SDS011;17046;52.074;4.748;2022-12-07T06:31:43;5.07;;;1.23;;
30233;SDS011;17046;52.074;4.748;2022-12-07T06:34:10;13.20;;;4.53;;
30233;SDS011;17046;52.074;4.748;2022-12-07T06:36:38;11.57;;;4.00;;
30233;SDS011;17046;52.074;4.748;2022-12-07T06:39:05;13.30;;;3.70;;
30233;SDS011;17046;52.074;4.748;2022-12-07T06:41:31;15.00;;;4.53;;
30233;SDS011;17046;52.074;4.748;2022-12-07T06:43:57;12.67;;;3.87;;
30233;SDS011;17046;52.074;4.748;2022-12-07T06:46:22;10.97;;;3.07;;
30233;SDS011;17046;52.074;4.748;2022-12-07T06:48:48;11.77;;;2.53;;
30233;SDS011;17046;52.074;4.748;2022-12-07T06:51:14;8.20;;;1.57;;
30233;SDS011;17046;52.074;4.748;2022-12-07T06:53:40;8.33;;;2.00;;
30233;SDS011;17046;52.074;4.748;2022-12-07T06:56:06;3.07;;;1.13;;
30233;SDS011;17046;52.074;4.748;2022-12-07T06:58:32;9.70;;;1.90;;
30233;SDS011;17046;52.074;4.748;2022-12-07T07:00:57;7.53;;;1.70;;
30233;SDS011;17046;52.074;4.748;2022-12-07T07:03:23;4.90;;;1.67;;
30233;SDS011;17046;52.074;4.748;2022-12-07T07:05:48;9.07;;;1.70;;
30233;SDS011;17046;52.074;4.748;2022-12-07T07:08:14;7.53;;;2.07;;
30233;SDS011;17046;52.074;4.748;2022-12-07T07:10:40;6.40;;;1.50;;
30233;SDS011;17046;52.074;4.748;2022-12-07T07:13:06;5.73;;;1.40;;
30233;SDS011;17046;52.074;4.748;2022-12-07T07:15:32;4.93;;;1.13;;
30233;SDS011;17046;52.074;4.748;2022-12-07T07:17:58;7.53;;;1.70;;
30233;SDS011;17046;52.074;4.748;2022-12-07T07:20:24;11.17;;;1.87;;
30233;SDS011;17046;52.074;4.748;2022-12-07T07:22:50;7.53;;;2.40;;
30233;SDS011;17046;52.074;4.748;2022-12-07T07:25:18;10.47;;;1.97;;
30233;SDS011;17046;52.074;4.748;2022-12-07T07:27:44;9.73;;;1.90;;
30233;SDS011;17046;52.074;4.748;2022-12-07T07:30:09;10.63;;;3.07;;
30233;SDS011;17046;52.074;4.748;2022-12-07T07:32:36;17.17;;;5.63;;
30233;SDS011;17046;52.074;4.748;2022-12-07T07:35:01;10.87;;;4.70;;
30233;SDS011;17046;52.074;4.748;2022-12-07T07:37:27;7.83;;;4.27;;
30233;SDS011;17046;52.074;4.748;2022-12-07T07:39:53;8.83;;;4.00;;
30233;SDS011;17046;52.074;4.748;2022-12-07T07:42:19;7.73;;;4.70;;
30233;SDS011;17046;52.074;4.748;2022-12-07T07:44:44;14.03;;;6.23;;
30233;SDS011;17046;52.074;4.748;2022-12-07T07:47:10;13.33;;;6.30;;
30233;SDS011;17046;52.074;4.748;2022-12-07T07:49:35;6.70;;;1.90;;
30233;SDS011;17046;52.074;4.748;2022-12-07T07:52:01;9.43;;;2.27;;
30233;SDS011;17046;52.074;4.748;2022-12-07T07:54:27;12.20;;;2.50;;
30233;SDS011;17046;52.074;4.748;2022-12-07T07:56:52;9.60;;;2.77;;
30233;SDS011;17046;52.074;4.748;2022-12-07T07:59:18;10.10;;;2.90;;
30233;SDS011;17046;52.074;4.748;2022-12-07T08:01:44;7.83;;;2.40;;
30233;SDS011;17046;52.074;4.748;2022-12-07T08:04:09;7.03;;;2.10;;
30233;SDS011;17046;52.074;4.748;2022-12-07T08:06:35;12.27;;;2.93;;
30233;SDS011;17046;52.074;4.748;2022-12-07T08:09:00;5.67;;;2.80;;
30233;SDS011;17046;52.074;4.748;2022-12-07T08:11:26;15.30;;;8.67;;
30233;SDS011;17046;52.074;4.748;2022-12-07T08:13:52;11.63;;;6.53;;
30233;SDS011;17046;52.074;4.748;2022-12-07T08:16:18;12.37;;;4.77;;
30233;SDS011;17046;52.074;4.748;2022-12-07T08:18:43;9.37;;;4.20;;
30233;SDS011;17046;52.074;4.748;2022-12-07T08:21:11;8.93;;;3.67;;
30233;SDS011;17046;52.074;4.748;2022-12-07T08:23:38;8.17;;;3.80;;
30233;SDS011;17046;52.074;4.748;2022-12-07T08:26:04;7.03;;;3.27;;
30233;SDS011;17046;52.074;4.748;2022-12-07T08:28:32;7.53;;;2.57;;
30233;SDS011;17046;52.074;4.748;2022-12-07T08:30:58;4.37;;;1.30;;
30233;SDS011;17046;52.074;4.748;2022-12-07T08:33:24;4.47;;;1.33;;
30233;SDS011;17046;52.074;4.748;2022-12-07T08:35:51;2.63;;;0.97;;
30233;SDS011;17046;52.074;4.748;2022-12-07T08:38:16;5.90;;;1.33;;
30233;SDS011;17046;52.074;4.748;2022-12-07T08:40:42;5.27;;;0.87;;
30233;SDS011;17046;52.074;4.748;2022-12-07T08:43:07;2.87;;;0.97;;
30233;SDS011;17046;52.074;4.748;2022-12-07T08:45:33;5.17;;;0.90;;
30233;SDS011;17046;52.074;4.748;2022-12-07T08:48:02;6.70;;;1.53;;
30233;SDS011;17046;52.074;4.748;2022-12-07T08:50:32;5.37;;;1.33;;
30233;SDS011;17046;52.074;4.748;2022-12-07T08:52:59;5.03;;;0.97;;
30233;SDS011;17046;52.074;4.748;2022-12-07T08:55:26;5.87;;;1.33;;
30233;SDS011;17046;52.074;4.748;2022-12-07T08:57:53;3.63;;;1.30;;
30233;SDS011;17046;52.074;4.748;2022-12-07T09:00:19;3.13;;;0.80;;
30233;SDS011;17046;52.074;4.748;2022-12-07T09:02:45;2.80;;;0.90;;
30233;SDS011;17046;52.074;4.748;2022-12-07T09:05:11;6.43;;;1.47;;
30233;SDS011;17046;52.074;4.748;2022-12-07T09:07:39;4.70;;;1.20;;
30233;SDS011;17046;52.074;4.748;2022-12-07T09:10:06;3.70;;;0.90;;
30233;SDS011;17046;52.074;4.748;2022-12-07T09:12:32;3.70;;;1.10;;
30233;SDS011;17046;52.074;4.748;2022-12-07T09:14:58;5.10;;;1.40;;
30233;SDS011;17046;52.074;4.748;2022-12-07T09:17:25;8.43;;;1.50;;
30233;SDS011;17046;52.074;4.748;2022-12-07T09:19:51;6.63;;;1.30;;
30233;SDS011;17046;52.074;4.748;2022-12-07T09:22:16;2.90;;;0.70;;
30233;SDS011;17046;52.074;4.748;2022-12-07T09:24:42;2.50;;;0.80;;
30233;SDS011;17046;52.074;4.748;2022-12-07T09:27:09;5.77;;;1.00;;
30233;SDS011;17046;52.074;4.748;2022-12-07T09:29:34;3.03;;;0.80;;
30233;SDS011;17046;52.074;4.748;2022-12-07T09:32:00;5.83;;;0.83;;
30233;SDS011;17046;52.074;4.748;2022-12-07T09:34:26;7.33;;;0.80;;
30233;SDS011;17046;52.074;4.748;2022-12-07T09:36:51;3.77;;;1.17;;
30233;SDS011;17046;52.074;4.748;2022-12-07T09:39:17;4.17;;;1.10;;
30233;SDS011;17046;52.074;4.748;2022-12-07T09:41:43;6.80;;;1.10;;
30233;SDS011;17046;52.074;4.748;2022-12-07T09:44:14;5.07;;;0.90;;
30233;SDS011;17046;52.074;4.748;2022-12-07T09:46:45;5.90;;;0.97;;
30233;SDS011;17046;52.074;4.748;2022-12-07T09:49:12;4.07;;;0.80;;
30233;SDS011;17046;52.074;4.748;2022-12-07T09:51:42;3.80;;;0.73;;
30233;SDS011;17046;52.074;4.748;2022-12-07T09:54:08;3.87;;;0.90;;
30233;SDS011;17046;52.074;4.748;2022-12-07T09:56:38;2.70;;;0.60;;
30233;SDS011;17046;52.074;4.748;2022-12-07T09:59:03;4.07;;;1.00;;
30233;SDS011;17046;52.074;4.748;2022-12-07T10:01:30;2.50;;;0.73;;
30233;SDS011;17046;52.074;4.748;2022-12-07T10:04:09;2.90;;;0.80;;
30233;SDS011;17046;52.074;4.748;2022-12-07T10:06:35;7.43;;;1.03;;
30233;SDS011;17046;52.074;4.748;2022-12-07T10:09:01;3.90;;;0.90;;
30233;SDS011;17046;52.074;4.748;2022-12-07T10:11:33;2.97;;;0.70;;
30233;SDS011;17046;52.074;4.748;2022-12-07T10:14:09;6.10;;;1.10;;
30233;SDS011;17046;52.074;4.748;2022-12-07T10:16:38;2.13;;;0.70;;
30233;SDS011;17046;52.074;4.748;2022-12-07T10:19:17;2.93;;;0.87;;
30233;SDS011;17046;52.074;4.748;2022-12-07T10:22:02;4.50;;;0.83;;
30233;SDS011;17046;52.074;4.748;2022-12-07T10:24:30;3.80;;;1.10;;
30233;SDS011;17046;52.074;4.748;2022-12-07T10:26:56;5.43;;;1.20;;
30233;SDS011;17046;52.074;4.748;2022-12-07T10:29:23;3.60;;;1.20;;
30233;SDS011;17046;52.074;4.748;2022-12-07T10:31:58;5.03;;;1.30;;
30233;SDS011;17046;52.074;4.748;2022-12-07T10:34:27;6.07;;;1.17;;
30233;SDS011;17046;52.074;4.748;2022-12-07T10:37:06;4.27;;;1.03;;
30233;SDS011;17046;52.074;4.748;2022-12-07T10:42:08;8.17;;;1.23;;
30233;SDS011;17046;52.074;4.748;2022-12-07T10:44:42;7.70;;;1.00;;
30233;SDS011;17046;52.074;4.748;2022-12-07T10:53:09;4.93;;;1.07;;
30233;SDS011;17046;52.074;4.748;2022-12-07T11:01:54;3.03;;;0.70;;
30233;SDS011;17046;52.074;4.748;2022-12-07T11:04:54;5.63;;;1.13;;
30233;SDS011;17046;52.074;4.748;2022-12-07T11:12:57;4.17;;;1.27;;
30233;SDS011;17046;52.074;4.748;2022-12-07T11:18:14;4.67;;;1.23;;
30233;SDS011;17046;52.074;4.748;2022-12-07T11:32:07;3.57;;;1.53;;
30233;SDS011;17046;52.074;4.748;2022-12-07T11:37:14;9.83;;;1.73;;
30233;SDS011;17046;52.074;4.748;2022-12-07T11:39:51;8.33;;;1.80;;
30233;SDS011;17046;52.074;4.748;2022-12-07T11:42:22;10.27;;;1.87;;
30233;SDS011;17046;52.074;4.748;2022-12-07T11:50:33;7.57;;;1.60;;
30233;SDS011;17046;52.074;4.748;2022-12-07T11:55:52;8.83;;;2.03;;
30233;SDS011;17046;52.074;4.748;2022-12-07T12:03:51;7.90;;;1.47;;
30233;SDS011;17046;52.074;4.748;2022-12-07T12:06:21;8.00;;;1.40;;
30233;SDS011;17046;52.074;4.748;2022-12-07T12:08:55;6.03;;;1.23;;
30233;SDS011;17046;52.074;4.748;2022-12-07T12:23:06;3.27;;;0.80;;
30233;SDS011;17046;52.074;4.748;2022-12-07T12:25:39;3.57;;;1.00;;
30233;SDS011;17046;52.074;4.748;2022-12-07T12:38:47;7.40;;;1.50;;
30233;SDS011;17046;52.074;4.748;2022-12-07T12:51:50;8.97;;;2.10;;
30233;SDS011;17046;52.074;4.748;2022-12-07T12:59:32;6.70;;;1.63;;
30233;SDS011;17046;52.074;4.748;2022-12-07T13:04:49;3.07;;;1.17;;
30233;SDS011;17046;52.074;4.748;2022-12-07T13:15:40;5.50;;;1.47;;
30233;SDS011;17046;52.074;4.748;2022-12-07T13:23:36;4.27;;;0.80;;
30233;SDS011;17046;52.074;4.748;2022-12-07T13:26:17;4.10;;;0.87;;
30233;SDS011;17046;52.074;4.748;2022-12-07T13:28:46;3.90;;;0.80;;
30233;SDS011;17046;52.074;4.748;2022-12-07T13:31:14;3.67;;;1.70;;
30233;SDS011;17046;52.074;4.748;2022-12-07T13:33:45;2.30;;;0.50;;
30233;SDS011;17046;52.074;4.748;2022-12-07T13:36:14;2.93;;;1.07;;
30233;SDS011;17046;52.074;4.748;2022-12-07T13:38:50;1.63;;;0.73;;
30233;SDS011;17046;52.074;4.748;2022-12-07T13:41:27;3.33;;;1.00;;
30233;SDS011;17046;52.074;4.748;2022-12-07T13:43:59;2.73;;;0.80;;
30233;SDS011;17046;52.074;4.748;2022-12-07T13:49:28;3.30;;;0.70;;
30233;SDS011;17046;52.074;4.748;2022-12-07T13:51:55;3.47;;;0.70;;
30233;SDS011;17046;52.074;4.748;2022-12-07T13:55:00;4.43;;;1.10;;
30233;SDS011;17046;52.074;4.748;2022-12-07T13:57:36;3.60;;;1.33;;
30233;SDS011;17046;52.074;4.748;2022-12-07T14:00:03;4.00;;;1.33;;
30233;SDS011;17046;52.074;4.748;2022-12-07T14:02:32;4.83;;;1.40;;
30233;SDS011;17046;52.074;4.748;2022-12-07T14:05:15;4.77;;;1.30;;
30233;SDS011;17046;52.074;4.748;2022-12-07T14:07:49;5.43;;;0.93;;
30233;SDS011;17046;52.074;4.748;2022-12-07T14:13:00;3.13;;;0.80;;
30233;SDS011;17046;52.074;4.748;2022-12-07T14:15:27;4.47;;;1.63;;
30233;SDS011;17046;52.074;4.748;2022-12-07T14:17:58;6.13;;;1.40;;
30233;SDS011;17046;52.074;4.748;2022-12-07T14:23:20;4.17;;;1.37;;
30233;SDS011;17046;52.074;4.748;2022-12-07T14:25:50;7.33;;;1.60;;
30233;SDS011;17046;52.074;4.748;2022-12-07T14:28:34;3.90;;;1.60;;
30233;SDS011;17046;52.074;4.748;2022-12-07T14:31:01;5.67;;;1.73;;
30233;SDS011;17046;52.074;4.748;2022-12-07T14:33:27;4.70;;;1.13;;
30233;SDS011;17046;52.074;4.748;2022-12-07T14:35:53;5.03;;;0.90;;
30233;SDS011;17046;52.074;4.748;2022-12-07T14:38:21;4.57;;;0.80;;
30233;SDS011;17046;52.074;4.748;2022-12-07T14:40:46;5.23;;;0.73;;
30233;SDS011;17046;52.074;4.748;2022-12-07T14:43:15;2.13;;;0.60;;
30233;SDS011;17046;52.074;4.748;2022-12-07T14:45:42;7.47;;;1.00;;
30233;SDS011;17046;52.074;4.748;2022-12-07T14:48:11;4.23;;;0.87;;
30233;SDS011;17046;52.074;4.748;2022-12-07T14:50:40;4.57;;;1.13;;
30233;SDS011;17046;52.074;4.748;2022-12-07T14:53:18;4.27;;;0.80;;
30233;SDS011;17046;52.074;4.748;2022-12-07T14:55:51;5.07;;;0.80;;
30233;SDS011;17046;52.074;4.748;2022-12-07T14:58:17;4.23;;;2.03;;
30233;SDS011;17046;52.074;4.748;2022-12-07T15:00:43;7.33;;;1.20;;
30233;SDS011;17046;52.074;4.748;2022-12-07T15:03:09;5.60;;;1.13;;
30233;SDS011;17046;52.074;4.748;2022-12-07T15:05:35;4.23;;;1.30;;
30233;SDS011;17046;52.074;4.748;2022-12-07T15:08:02;3.83;;;1.17;;
30233;SDS011;17046;52.074;4.748;2022-12-07T15:10:29;3.00;;;0.87;;
30233;SDS011;17046;52.074;4.748;2022-12-07T15:13:01;4.97;;;1.00;;
30233;SDS011;17046;52.074;4.748;2022-12-07T15:15:47;2.53;;;0.90;;
30233;SDS011;17046;52.074;4.748;2022-12-07T15:18:13;6.27;;;1.10;;
30233;SDS011;17046;52.074;4.748;2022-12-07T15:20:40;3.97;;;1.00;;
30233;SDS011;17046;52.074;4.748;2022-12-07T15:23:06;3.50;;;1.13;;
30233;SDS011;17046;52.074;4.748;2022-12-07T15:25:31;4.80;;;1.33;;
30233;SDS011;17046;52.074;4.748;2022-12-07T15:27:57;9.03;;;1.70;;
30233;SDS011;17046;52.074;4.748;2022-12-07T15:30:22;3.47;;;1.77;;
30233;SDS011;17046;52.074;4.748;2022-12-07T15:32:51;9.30;;;2.30;;
30233;SDS011;17046;52.074;4.748;2022-12-07T15:35:17;8.97;;;2.33;;
30233;SDS011;17046;52.074;4.748;2022-12-07T15:37:43;11.90;;;3.57;;
30233;SDS011;17046;52.074;4.748;2022-12-07T15:40:09;9.63;;;4.40;;
30233;SDS011;17046;52.074;4.748;2022-12-07T15:42:35;8.83;;;1.60;;
30233;SDS011;17046;52.074;4.748;2022-12-07T15:45:01;7.27;;;1.77;;
30233;SDS011;17046;52.074;4.748;2022-12-07T15:47:34;4.97;;;1.60;;
30233;SDS011;17046;52.074;4.748;2022-12-07T15:50:02;3.83;;;1.33;;
30233;SDS011;17046;52.074;4.748;2022-12-07T15:52:29;2.23;;;1.43;;
30233;SDS011;17046;52.074;4.748;2022-12-07T15:54:55;5.37;;;1.57;;
30233;SDS011;17046;52.074;4.748;2022-12-07T15:57:20;7.60;;;1.47;;
30233;SDS011;17046;52.074;4.748;2022-12-07T15:59:46;3.27;;;1.20;;
30233;SDS011;17046;52.074;4.748;2022-12-07T16:02:12;10.03;;;3.53;;
30233;SDS011;17046;52.074;4.748;2022-12-07T16:22:45;5.68;;;1.80;;
30233;SDS011;17046;52.074;4.748;2022-12-07T16:25:11;7.33;;;1.60;;
30233;SDS011;17046;52.074;4.748;2022-12-07T16:27:36;6.87;;;2.00;;
30233;SDS011;17046;52.074;4.748;2022-12-07T16:30:02;4.17;;;1.67;;
30233;SDS011;17046;52.074;4.748;2022-12-07T16:32:28;3.67;;;1.33;;
30233;SDS011;17046;52.074;4.748;2022-12-07T16:34:53;7.93;;;1.67;;
30233;SDS011;17046;52.074;4.748;2022-12-07T16:37:19;2.47;;;1.03;;
30233;SDS011;17046;52.074;4.748;2022-12-07T16:39:44;6.27;;;1.47;;
30233;SDS011;17046;52.074;4.748;2022-12-07T16:42:10;4.60;;;1.30;;
30233;SDS011;17046;52.074;4.748;2022-12-07T16:44:35;5.50;;;1.30;;
30233;SDS011;17046;52.074;4.748;2022-12-07T16:47:01;5.00;;;1.43;;
30233;SDS011;17046;52.074;4.748;2022-12-07T16:49:27;6.03;;;1.70;;
30233;SDS011;17046;52.074;4.748;2022-12-07T16:51:52;5.30;;;1.50;;
30233;SDS011;17046;52.074;4.748;2022-12-07T16:54:18;3.43;;;1.43;;
30233;SDS011;17046;52.074;4.748;2022-12-07T16:56:44;9.23;;;1.87;;
30233;SDS011;17046;52.074;4.748;2022-12-07T16:59:09;4.53;;;1.47;;
30233;SDS011;17046;52.074;4.748;2022-12-07T17:01:35;5.53;;;1.70;;
30233;SDS011;17046;52.074;4.748;2022-12-07T17:04:00;2.80;;;1.50;;
30233;SDS011;17046;52.074;4.748;2022-12-07T17:06:27;5.13;;;1.90;;
30233;SDS011;17046;52.074;4.748;2022-12-07T17:08:54;7.90;;;2.60;;
30233;SDS011;17046;52.074;4.748;2022-12-07T17:11:22;5.73;;;3.00;;
30233;SDS011;17046;52.074;4.748;2022-12-07T17:13:49;6.83;;;3.43;;
30233;SDS011;17046;52.074;4.748;2022-12-07T17:16:33;8.53;;;3.53;;
30233;SDS011;17046;52.074;4.748;2022-12-07T17:19:00;44.27;;;17.50;;
30233;SDS011;17046;52.074;4.748;2022-12-07T17:21:30;18.17;;;9.27;;
30233;SDS011;17046;52.074;4.748;2022-12-07T17:23:57;14.67;;;8.40;;
30233;SDS011;17046;52.074;4.748;2022-12-07T17:26:24;15.40;;;9.00;;
30233;SDS011;17046;52.074;4.748;2022-12-07T17:28:50;20.70;;;17.83;;